Time;durP1;ratioP1;P1;durP2;ratioP2;P2;SDS_P1;SDS_P2;PMS_P1;PMS_P2;Temp;Humidity;BMP_temperature;BMP_pressure;BME280_temperature;BME280_humidity;BME280_pressure;Samples;Min_cycle;Max_cycle;Signal;HPM_P1;HPM_P2
2023/12/19 00:02:19;;;;;;;;;;;21.80;35.10;;;;;;5013564;28;20412;-52
2023/12/19 00:04:46;;;;;;;;;;;21.80;35.10;;;;;;5013848;28;19926;-54
2023/12/19 00:07:13;;;;;;;;;;;21.80;35.10;;;;;;5013269;28;19926;-56
2023/12/19 00:09:40;;;;;;;;;;;21.80;35.10;;;;;;5014160;28;19929;-56
2023/12/19 00:12:08;;;;;;;;;;;21.80;35.20;;;;;;5013527;28;19979;-50
2023/12/19 00:14:35;;;;;;;;;;;21.80;35.20;;;;;;5013687;28;19979;-55
2023/12/19 00:17:02;;;;;;;;;;;21.80;35.20;;;;;;5013662;28;20317;-53
2023/12/19 00:19:29;;;;;;;;;;;21.80;35.20;;;;;;5013683;28;19930;-54
2023/12/19 00:21:56;;;;;;;;;;;21.80;35.30;;;;;;5016520;28;20370;-54
2023/12/19 00:24:23;;;;;;;;;;;21.80;35.30;;;;;;5017435;28;19933;-55
2023/12/19 00:26:50;;;;;;;;;;;21.70;35.30;;;;;;5017611;28;20260;-53
2023/12/19 00:29:17;;;;;;;;;;;21.80;35.30;;;;;;5017281;28;19935;-54
2023/12/19 00:31:44;;;;;;;;;;;21.80;35.30;;;;;;5017655;28;19925;-53
2023/12/19 00:34:13;;;;;;;;;;;21.80;35.30;;;;;;5017453;28;20003;-55
2023/12/19 00:36:40;;;;;;;;;;;21.80;35.30;;;;;;5017077;28;20049;-55
2023/12/19 00:39:08;;;;;;;;;;;21.80;35.20;;;;;;4999765;28;19926;-55
2023/12/19 00:41:35;;;;;;;;;;;21.80;35.20;;;;;;5017157;28;19925;-54
2023/12/19 00:44:03;;;;;;;;;;;21.80;35.20;;;;;;5017183;28;19929;-56
2023/12/19 00:46:30;;;;;;;;;;;21.70;35.20;;;;;;5016891;28;19930;-53
2023/12/19 00:48:57;;;;;;;;;;;21.70;35.10;;;;;;5017127;28;20337;-55
2023/12/19 00:51:24;;;;;;;;;;;21.70;35.10;;;;;;5017176;28;19925;-55
2023/12/19 00:53:51;;;;;;;;;;;21.70;35.10;;;;;;5017171;28;19925;-56
2023/12/19 00:56:18;;;;;;;;;;;21.70;35.20;;;;;;5017049;28;19930;-54
2023/12/19 00:58:48;;;;;;;;;;;21.70;35.20;;;;;;5016680;28;20393;-54
2023/12/19 01:01:20;;;;;;;;;;;21.70;35.20;;;;;;5017008;28;19977;-58
2023/12/19 01:03:48;;;;;;;;;;;21.70;35.20;;;;;;5016435;28;19925;-57
2023/12/19 01:06:15;;;;;;;;;;;21.70;35.20;;;;;;5016987;28;19925;-57
2023/12/19 01:08:41;;;;;;;;;;;21.70;35.20;;;;;;5016620;28;19968;-57
2023/12/19 01:11:10;;;;;;;;;;;21.70;35.20;;;;;;4999032;28;20016;-56
2023/12/19 01:13:37;;;;;;;;;;;21.70;35.20;;;;;;5016859;28;20008;-55
2023/12/19 01:16:05;;;;;;;;;;;21.70;35.20;;;;;;5016950;28;19926;-56
2023/12/19 01:18:32;;;;;;;;;;;21.70;35.20;;;;;;5016582;28;19998;-55
2023/12/19 01:20:59;;;;;;;;;;;21.70;35.30;;;;;;5016610;28;20317;-55
2023/12/19 01:23:26;;;;;;;;;;;21.70;35.20;;;;;;4998982;28;19976;-53
2023/12/19 01:25:53;;;;;;;;;;;21.70;35.30;;;;;;5016506;28;19926;-56
2023/12/19 01:28:20;;;;;;;;;;;21.70;35.30;;;;;;5016147;28;19978;-54
2023/12/19 01:30:47;;;;;;;;;;;21.70;35.20;;;;;;5016140;28;20401;-56
2023/12/19 01:33:14;;;;;;;;;;;21.70;35.20;;;;;;5016164;28;19932;-58
2023/12/19 01:35:41;;;;;;;;;;;21.70;35.20;;;;;;5016404;28;19971;-55
2023/12/19 01:38:08;;;;;;;;;;;21.70;35.20;;;;;;5016196;28;19925;-55
2023/12/19 01:40:35;;;;;;;;;;;21.70;35.20;;;;;;5015920;28;19925;-55
2023/12/19 01:43:02;;;;;;;;;;;21.60;35.20;;;;;;5016183;28;19926;-56
2023/12/19 01:45:29;;;;;;;;;;;21.60;35.20;;;;;;5015844;28;19926;-54
2023/12/19 01:47:57;;;;;;;;;;;21.60;35.20;;;;;;5016209;28;19956;-56
2023/12/19 01:50:24;;;;;;;;;;;21.60;35.20;;;;;;5015877;28;19972;-55
2023/12/19 01:52:53;;;;;;;;;;;21.60;35.10;;;;;;5016035;28;20024;-54
2023/12/19 01:55:22;;;;;;;;;;;21.60;35.20;;;;;;4998868;28;20016;-54
2023/12/19 01:57:49;;;;;;;;;;;21.60;35.20;;;;;;5015490;28;20425;-55
2023/12/19 02:00:16;;;;;;;;;;;21.60;35.20;;;;;;5015513;28;19926;-52
2023/12/19 02:02:44;;;;;;;;;;;21.60;35.20;;;;;;5015839;28;19979;-50
2023/12/19 02:05:11;;;;;;;;;;;21.60;35.20;;;;;;5015528;28;19937;-55
2023/12/19 02:07:39;;;;;;;;;;;21.60;35.20;;;;;;5031931;28;19925;-54
2023/12/19 02:10:07;;;;;;;;;;;21.60;35.20;;;;;;5035615;28;20012;-54
2023/12/19 02:12:34;;;;;;;;;;;21.60;35.20;;;;;;5031656;28;20346;-56
2023/12/19 02:15:02;;;;;;;;;;;21.60;35.20;;;;;;5015270;28;19937;-54
2023/12/19 02:17:29;;;;;;;;;;;21.60;35.20;;;;;;5015591;28;19932;-56
2023/12/19 02:19:56;;;;;;;;;;;21.60;35.80;;;;;;5015147;28;19925;-53
2023/12/19 02:22:23;;;;;;;;;;;21.60;35.20;;;;;;5014935;28;19925;-56
2023/12/19 02:24:50;;;;;;;;;;;21.60;35.20;;;;;;5015549;28;19932;-55
2023/12/19 02:27:22;;;;;;;;;;;21.60;35.20;;;;;;5014992;28;19993;-56
2023/12/19 02:29:49;;;;;;;;;;;21.60;35.10;;;;;;5015669;28;19968;-53
2023/12/19 02:32:16;;;;;;;;;;;21.60;35.10;;;;;;5015070;28;19926;-53
2023/12/19 02:34:43;;;;;;;;;;;21.60;35.00;;;;;;5015026;28;19925;-56
2023/12/19 02:37:10;;;;;;;;;;;21.60;35.00;;;;;;5014641;28;20302;-55
2023/12/19 02:39:37;;;;;;;;;;;21.60;35.00;;;;;;5015143;28;20263;-54
2023/12/19 02:42:04;;;;;;;;;;;21.50;35.00;;;;;;5014760;28;19940;-53
2023/12/19 02:44:31;;;;;;;;;;;21.50;35.00;;;;;;5014277;28;20333;-56
2023/12/19 02:46:58;;;;;;;;;;;21.50;35.00;;;;;;5014872;28;19925;-56
2023/12/19 02:49:25;;;;;;;;;;;21.50;35.00;;;;;;5014868;28;20023;-56
2023/12/19 02:51:52;;;;;;;;;;;21.50;35.00;;;;;;5014820;28;19929;-57
2023/12/19 02:54:19;;;;;;;;;;;21.50;35.00;;;;;;5014909;28;19925;-57
2023/12/19 02:56:46;;;;;;;;;;;21.50;35.00;;;;;;5014198;28;19933;-57
2023/12/19 02:59:13;;;;;;;;;;;21.50;35.00;;;;;;5014408;28;20472;-55
2023/12/19 03:01:44;;;;;;;;;;;21.50;35.00;;;;;;5014687;28;19957;-56
2023/12/19 03:04:11;;;;;;;;;;;21.50;35.00;;;;;;5013763;28;20473;-55
2023/12/19 03:06:39;;;;;;;;;;;21.50;35.00;;;;;;5014104;28;19935;-56
2023/12/19 03:09:05;;;;;;;;;;;21.50;35.00;;;;;;5014287;28;19932;-56
2023/12/19 03:11:37;;;;;;;;;;;21.50;35.00;;;;;;5014351;28;20378;-55
2023/12/19 03:14:04;;;;;;;;;;;21.50;35.00;;;;;;5014535;28;19983;-56
2023/12/19 03:16:31;;;;;;;;;;;21.50;35.10;;;;;;5014704;28;19925;-56
2023/12/19 03:18:58;;;;;;;;;;;21.50;35.10;;;;;;5014062;28;19972;-57
2023/12/19 03:21:25;;;;;;;;;;;21.50;35.10;;;;;;5008245;28;19984;-55
2023/12/19 03:23:52;;;;;;;;;;;21.50;35.00;;;;;;5013773;28;19968;-57
2023/12/19 03:26:19;;;;;;;;;;;21.50;35.00;;;;;;5013438;28;20032;-55
2023/12/19 03:28:46;;;;;;;;;;;21.50;35.00;;;;;;5007341;28;20024;-56
2023/12/19 03:31:13;;;;;;;;;;;21.50;34.90;;;;;;5000720;28;20296;-55
2023/12/19 03:33:40;;;;;;;;;;;21.50;35.00;;;;;;4994413;28;19932;-56
2023/12/19 03:36:07;;;;;;;;;;;21.50;35.00;;;;;;5008245;28;19925;-53
2023/12/19 03:38:35;;;;;;;;;;;21.50;34.90;;;;;;5013995;28;20012;-55
2023/12/19 03:41:02;;;;;;;;;;;21.50;34.90;;;;;;5013977;28;19930;-55
2023/12/19 03:43:29;;;;;;;;;;;21.50;34.90;;;;;;5013762;28;19925;-53
2023/12/19 03:46:01;;;;;;;;;;;21.40;34.80;;;;;;5013898;28;19980;-56
2023/12/19 03:48:28;;;;;;;;;;;21.40;34.80;;;;;;5013603;28;20295;-56
2023/12/19 03:50:56;;;;;;;;;;;21.40;34.80;;;;;;5013932;28;19930;-54
2023/12/19 03:53:23;;;;;;;;;;;21.50;34.90;;;;;;5013894;28;19952;-54
2023/12/19 03:55:50;;;;;;;;;;;21.40;34.90;;;;;;5013453;28;20291;-53
2023/12/19 03:58:16;;;;;;;;;;;21.40;34.80;;;;;;5013250;28;19925;-55
2023/12/19 04:00:43;;;;;;;;;;;21.40;34.90;;;;;;5013664;28;19953;-53
2023/12/19 04:03:10;;;;;;;;;;;21.40;34.90;;;;;;5007503;28;19929;-54
2023/12/19 04:05:37;;;;;;;;;;;21.40;34.90;;;;;;4999629;28;19930;-55
2023/12/19 04:08:05;;;;;;;;;;;21.40;34.90;;;;;;4993778;28;20024;-56
2023/12/19 04:10:32;;;;;;;;;;;21.40;34.90;;;;;;4994118;28;19930;-54
2023/12/19 04:12:58;;;;;;;;;;;21.40;34.90;;;;;;4994012;28;19936;-56
2023/12/19 04:15:26;;;;;;;;;;;21.40;34.90;;;;;;4993891;28;20020;-55
2023/12/19 04:17:53;;;;;;;;;;;21.40;34.90;;;;;;4994072;28;19983;-56
2023/12/19 04:20:20;;;;;;;;;;;21.40;34.90;;;;;;4994000;28;20304;-54
2023/12/19 04:22:47;;;;;;;;;;;21.40;34.90;;;;;;4993824;28;19961;-54
2023/12/19 04:25:13;;;;;;;;;;;21.40;34.90;;;;;;5014860;28;20400;-53
2023/12/19 04:27:40;;;;;;;;;;;21.40;34.80;;;;;;5013174;28;19926;-54
2023/12/19 04:30:07;;;;;;;;;;;21.40;34.80;;;;;;5008475;28;19926;-55
2023/12/19 04:32:35;;;;;;;;;;;21.40;34.80;;;;;;5001126;28;19953;-57
2023/12/19 04:35:02;;;;;;;;;;;21.40;34.80;;;;;;4993832;28;20271;-56
2023/12/19 04:37:29;;;;;;;;;;;21.40;34.80;;;;;;4993407;28;19925;-57
2023/12/19 04:39:57;;;;;;;;;;;21.40;34.60;;;;;;4993382;28;20375;-56
2023/12/19 04:42:24;;;;;;;;;;;21.40;34.40;;;;;;4993648;28;19981;-56
2023/12/19 04:44:51;;;;;;;;;;;21.40;34.20;;;;;;4993584;28;19933;-55
2023/12/19 04:47:18;;;;;;;;;;;21.40;33.90;;;;;;5009484;28;19926;-55
2023/12/19 04:49:45;;;;;;;;;;;21.50;33.70;;;;;;5013098;28;19980;-56
2023/12/19 04:52:12;;;;;;;;;;;21.50;33.60;;;;;;5012866;28;19972;-55
2023/12/19 04:54:39;;;;;;;;;;;21.50;33.40;;;;;;5012717;28;20044;-54
2023/12/19 04:57:06;;;;;;;;;;;21.50;33.20;;;;;;5007746;28;19926;-55
2023/12/19 04:59:33;;;;;;;;;;;21.60;33.10;;;;;;4997873;28;19933;-54
2023/12/19 05:02:01;;;;;;;;;;;21.60;33.00;;;;;;5012390;28;19965;-54
2023/12/19 05:04:28;;;;;;;;;;;21.60;32.90;;;;;;5013157;28;19926;-55
2023/12/19 05:06:55;;;;;;;;;;;21.60;32.80;;;;;;5014884;28;19929;-55
2023/12/19 05:09:22;;;;;;;;;;;21.60;32.70;;;;;;5018766;28;19929;-51
2023/12/19 05:11:49;;;;;;;;;;;21.60;32.60;;;;;;5036420;28;19925;-56
2023/12/19 05:14:16;;;;;;;;;;;21.70;32.60;;;;;;5036262;28;20361;-53
2023/12/19 05:16:43;;;;;;;;;;;21.70;32.60;;;;;;5035926;28;20452;-55
2023/12/19 05:19:10;;;;;;;;;;;21.70;32.60;;;;;;5036451;28;19925;-56
2023/12/19 05:21:40;;;;;;;;;;;21.70;32.60;;;;;;5036123;28;20294;-55
2023/12/19 05:24:09;;;;;;;;;;;21.70;32.50;;;;;;5035606;28;19936;-54
2023/12/19 05:26:36;;;;;;;;;;;21.70;32.40;;;;;;5036084;28;19954;-52
2023/12/19 05:29:03;;;;;;;;;;;21.70;32.30;;;;;;5035569;28;20302;-52
2023/12/19 05:31:30;;;;;;;;;;;21.70;32.30;;;;;;5035995;28;19925;-52
2023/12/19 05:33:57;;;;;;;;;;;21.70;32.20;;;;;;5035970;28;19929;-51
2023/12/19 05:36:24;;;;;;;;;;;21.80;32.20;;;;;;5035608;28;19947;-52
2023/12/19 05:38:51;;;;;;;;;;;21.80;32.10;;;;;;5031197;28;19925;-54
2023/12/19 05:41:21;;;;;;;;;;;21.80;32.10;;;;;;5006109;28;20375;-55
2023/12/19 05:43:48;;;;;;;;;;;21.80;32.00;;;;;;4996575;28;19930;-53
2023/12/19 05:46:15;;;;;;;;;;;21.80;32.00;;;;;;4995966;28;20028;-55
2023/12/19 05:48:41;;;;;;;;;;;21.80;32.00;;;;;;4997926;28;19932;-54
2023/12/19 05:51:09;;;;;;;;;;;21.80;31.90;;;;;;5015990;28;19929;-55
2023/12/19 05:53:36;;;;;;;;;;;21.80;31.90;;;;;;5015752;28;19930;-52
2023/12/19 05:56:03;;;;;;;;;;;21.80;31.80;;;;;;5018708;28;19941;-53
2023/12/19 05:58:31;;;;;;;;;;;21.80;31.80;;;;;;4996009;28;19925;-54
2023/12/19 06:00:57;;;;;;;;;;;21.80;31.80;;;;;;5000178;28;20012;-55
2023/12/19 06:03:25;;;;;;;;;;;21.80;31.80;;;;;;5014911;28;20428;-54
2023/12/19 06:05:52;;;;;;;;;;;21.90;31.80;;;;;;5014150;28;19933;-53
2023/12/19 06:08:20;;;;;;;;;;;21.80;31.70;;;;;;5010746;28;19926;-55
2023/12/19 06:10:47;;;;;;;;;;;21.90;31.80;;;;;;5010414;28;19991;-56
2023/12/19 06:13:14;;;;;;;;;;;21.80;31.90;;;;;;5011811;28;20390;-54
2023/12/19 06:15:41;;;;;;;;;;;21.80;32.10;;;;;;5005673;28;19938;-57
2023/12/19 06:18:08;;;;;;;;;;;21.90;32.30;;;;;;5009418;28;20348;-55
2023/12/19 06:20:35;;;;;;;;;;;21.90;32.50;;;;;;5007426;28;19932;-57
2023/12/19 06:23:03;;;;;;;;;;;21.90;32.70;;;;;;5004897;28;19933;-56
2023/12/19 06:25:31;;;;;;;;;;;21.90;32.90;;;;;;5008680;28;19929;-57
2023/12/19 06:27:58;;;;;;;;;;;21.90;33.00;;;;;;5016985;28;19959;-55
2023/12/19 06:30:29;;;;;;;;;;;21.90;33.70;;;;;;5003650;28;20389;-55
2023/12/19 06:33:02;;;;;;;;;;;21.90;33.30;;;;;;4996890;28;20351;-54
2023/12/19 06:35:30;;;;;;;;;;;21.90;33.20;;;;;;5003336;28;20665;-55
2023/12/19 06:37:57;;;;;;;;;;;22.00;33.30;;;;;;5003128;28;19944;-52
2023/12/19 06:40:24;;;;;;;;;;;22.00;33.20;;;;;;4991398;28;20008;-52
2023/12/19 06:42:51;;;;;;;;;;;22.00;33.20;;;;;;4989269;28;19934;-55
2023/12/19 06:45:18;;;;;;;;;;;22.10;33.20;;;;;;5004889;28;20028;-53
2023/12/19 06:47:46;;;;;;;;;;;22.10;33.10;;;;;;5012876;28;19926;-54
2023/12/19 06:50:14;;;;;;;;;;;22.10;33.00;;;;;;5007703;28;19929;-57
2023/12/19 06:52:41;;;;;;;;;;;22.10;32.70;;;;;;5008833;28;19936;-56
2023/12/19 06:55:12;;;;;;;;;;;22.20;32.60;;;;;;5006418;28;19979;-56
2023/12/19 06:57:39;;;;;;;;;;;22.20;32.50;;;;;;5000804;28;20343;-56
2023/12/19 07:00:06;;;;;;;;;;;22.20;32.50;;;;;;4999521;28;20301;-56
2023/12/19 07:02:35;;;;;;;;;;;22.20;32.40;;;;;;5003211;28;19968;-54
2023/12/19 07:05:03;;;;;;;;;;;22.20;32.40;;;;;;5007579;28;19933;-56
2023/12/19 07:07:31;;;;;;;;;;;22.20;32.40;;;;;;5001358;28;20070;-55
2023/12/19 07:09:58;;;;;;;;;;;22.20;32.40;;;;;;5006293;28;19933;-54
2023/12/19 07:12:25;;;;;;;;;;;22.20;32.70;;;;;;5003789;28;19941;-52
2023/12/19 07:14:52;;;;;;;;;;;22.30;33.00;;;;;;5009133;28;19971;-58
2023/12/19 07:17:19;;;;;;;;;;;22.40;33.40;;;;;;5009045;28;20551;-52
2023/12/19 07:19:47;;;;;;;;;;;22.40;33.50;;;;;;5004686;28;19965;-59
2023/12/19 07:22:14;;;;;;;;;;;22.50;33.70;;;;;;5003119;28;20469;-56
2023/12/19 07:24:41;;;;;;;;;;;22.50;33.80;;;;;;4990614;28;19930;-54
2023/12/19 07:27:08;;;;;;;;;;;22.60;33.80;;;;;;5004515;28;19975;-53
2023/12/19 07:29:41;;;;;;;;;;;22.70;33.60;;;;;;4987901;28;19925;-52
2023/12/19 07:32:09;;;;;;;;;;;22.80;33.40;;;;;;5007156;28;19925;-56
2023/12/19 07:34:35;;;;;;;;;;;23.00;33.30;;;;;;5008133;28;21744;-56
2023/12/19 07:37:03;;;;;;;;;;;23.10;33.10;;;;;;5007046;28;19976;-53
2023/12/19 07:39:30;;;;;;;;;;;23.10;32.90;;;;;;5006037;28;20404;-52
2023/12/19 07:41:57;;;;;;;;;;;23.30;32.90;;;;;;5004673;28;19932;-55
2023/12/19 07:44:24;;;;;;;;;;;23.40;32.80;;;;;;5004038;28;19983;-56
2023/12/19 07:46:51;;;;;;;;;;;23.50;32.70;;;;;;5003717;28;20390;-57
2023/12/19 07:49:18;;;;;;;;;;;23.60;32.50;;;;;;5005352;28;19929;-53
2023/12/19 07:51:45;;;;;;;;;;;23.70;32.50;;;;;;5007470;28;19925;-57
2023/12/19 07:54:12;;;;;;;;;;;23.80;32.40;;;;;;5002420;28;19929;-54
2023/12/19 07:56:40;;;;;;;;;;;23.90;32.30;;;;;;5002558;28;20357;-56
2023/12/19 07:59:07;;;;;;;;;;;24.00;32.30;;;;;;5005027;28;19951;-55
2023/12/19 08:01:34;;;;;;;;;;;24.10;32.20;;;;;;4983625;28;19934;-58
2023/12/19 08:04:01;;;;;;;;;;;24.10;32.20;;;;;;4999045;28;19940;-58
2023/12/19 08:06:28;;;;;;;;;;;24.20;32.10;;;;;;5003354;28;20378;-58
2023/12/19 08:08:56;;;;;;;;;;;24.30;32.00;;;;;;5004829;28;19987;-58
2023/12/19 08:11:23;;;;;;;;;;;24.40;31.70;;;;;;5008102;28;20445;-56
2023/12/19 08:13:52;;;;;;;;;;;24.50;31.50;;;;;;5001777;28;19934;-57
2023/12/19 08:16:20;;;;;;;;;;;24.50;31.20;;;;;;5004850;28;19936;-60
2023/12/19 08:18:50;;;;;;;;;;;24.60;31.10;;;;;;5004049;28;19941;-55
2023/12/19 08:21:18;;;;;;;;;;;24.70;31.20;;;;;;4991723;28;19937;-58
2023/12/19 08:23:47;;;;;;;;;;;24.70;31.20;;;;;;5008717;28;19926;-57
2023/12/19 08:26:14;;;;;;;;;;;24.70;31.00;;;;;;5009352;28;19933;-57
2023/12/19 08:28:41;;;;;;;;;;;24.80;30.90;;;;;;5002283;28;19933;-56
2023/12/19 08:31:09;;;;;;;;;;;24.80;30.90;;;;;;5003381;28;19933;-58
2023/12/19 08:33:37;;;;;;;;;;;24.80;30.80;;;;;;5007931;28;19933;-57
2023/12/19 08:36:04;;;;;;;;;;;24.90;30.80;;;;;;5005295;28;20008;-58
2023/12/19 08:38:31;;;;;;;;;;;24.90;30.70;;;;;;5002549;28;19984;-57
2023/12/19 08:40:58;;;;;;;;;;;24.90;30.60;;;;;;5003073;28;19934;-55
2023/12/19 08:43:25;;;;;;;;;;;25.00;30.50;;;;;;5009503;28;19926;-57
2023/12/19 08:45:52;;;;;;;;;;;25.00;30.50;;;;;;5001154;28;19933;-57
2023/12/19 08:48:19;;;;;;;;;;;25.00;30.40;;;;;;5009124;28;20359;-58
2023/12/19 08:50:47;;;;;;;;;;;25.10;30.40;;;;;;5005975;28;20509;-57
2023/12/19 08:53:14;;;;;;;;;;;25.10;30.30;;;;;;5008315;28;19938;-57
2023/12/19 08:55:42;;;;;;;;;;;25.10;30.30;;;;;;5014855;28;19932;-56
2023/12/19 08:58:09;;;;;;;;;;;25.20;30.30;;;;;;5009716;28;19926;-57
2023/12/19 09:00:37;;;;;;;;;;;25.20;30.20;;;;;;5007109;28;19929;-56
2023/12/19 09:03:05;;;;;;;;;;;25.20;30.20;;;;;;5008996;28;19955;-55
2023/12/19 09:05:33;;;;;;;;;;;25.30;30.30;;;;;;5003139;28;19992;-57
2023/12/19 09:08:01;;;;;;;;;;;25.30;30.30;;;;;;5010288;28;19967;-58
2023/12/19 09:10:29;;;;;;;;;;;25.40;30.20;;;;;;5008781;28;20457;-56
2023/12/19 09:12:57;;;;;;;;;;;25.40;30.10;;;;;;5009117;28;19938;-55
2023/12/19 09:15:24;;;;;;;;;;;25.40;30.00;;;;;;5004881;28;19933;-58
2023/12/19 09:17:51;;;;;;;;;;;25.40;30.00;;;;;;5008205;28;19929;-57
2023/12/19 09:20:21;;;;;;;;;;;25.40;30.00;;;;;;5007040;28;20294;-57
2023/12/19 09:22:48;;;;;;;;;;;25.50;30.00;;;;;;5006494;28;20450;-55
2023/12/19 09:25:15;;;;;;;;;;;25.50;30.00;;;;;;4990447;28;20325;-58
2023/12/19 09:27:44;;;;;;;;;;;25.60;29.90;;;;;;5006799;28;20015;-56
2023/12/19 09:30:12;;;;;;;;;;;25.60;29.90;;;;;;5003495;28;20020;-56
2023/12/19 09:32:40;;;;;;;;;;;25.60;30.00;;;;;;5004023;28;19933;-55
2023/12/19 09:35:08;;;;;;;;;;;25.60;30.00;;;;;;5007126;28;19934;-54
2023/12/19 09:37:37;;;;;;;;;;;25.60;30.00;;;;;;5003301;28;20025;-58
2023/12/19 09:40:13;;;;;;;;;;;25.70;30.00;;;;;;5005549;28;19932;-57
2023/12/19 09:42:40;;;;;;;;;;;25.70;30.00;;;;;;5006829;28;19961;-56
2023/12/19 09:45:07;;;;;;;;;;;25.70;30.00;;;;;;4994841;28;19932;-56
2023/12/19 09:47:39;;;;;;;;;;;25.70;29.90;;;;;;5010343;28;19934;-58
2023/12/19 09:50:11;;;;;;;;;;;25.80;30.00;;;;;;5008816;28;20449;-57
2023/12/19 09:52:39;;;;;;;;;;;25.80;29.90;;;;;;5003987;28;20371;-58
2023/12/19 09:55:06;;;;;;;;;;;25.80;29.90;;;;;;5008556;28;20439;-57
2023/12/19 09:57:35;;;;;;;;;;;25.90;29.90;;;;;;5010046;28;19933;-58
2023/12/19 10:00:08;;;;;;;;;;;25.90;29.90;;;;;;5007136;28;19933;-58
2023/12/19 10:02:36;;;;;;;;;;;25.90;29.90;;;;;;5006067;28;19934;-56
2023/12/19 10:05:04;;;;;;;;;;;25.90;29.80;;;;;;5005120;28;19951;-58
2023/12/19 10:07:31;;;;;;;;;;;25.90;29.80;;;;;;5008163;28;19940;-58
2023/12/19 10:10:02;;;;;;;;;;;26.00;29.80;;;;;;5008725;28;20024;-58
2023/12/19 10:12:31;;;;;;;;;;;26.00;29.90;;;;;;5010798;28;20623;-57
2023/12/19 10:15:10;;;;;;;;;;;26.00;29.80;;;;;;5005143;28;19934;-58
2023/12/19 10:17:37;;;;;;;;;;;26.00;29.80;;;;;;5007709;28;19943;-58
2023/12/19 10:20:09;;;;;;;;;;;26.00;29.80;;;;;;5005398;28;19929;-57
2023/12/19 10:22:37;;;;;;;;;;;26.10;29.80;;;;;;5004945;28;19932;-56
2023/12/19 10:25:04;;;;;;;;;;;26.10;29.80;;;;;;5009458;28;19935;-57
2023/12/19 10:27:31;;;;;;;;;;;26.10;29.80;;;;;;5008050;28;19925;-57
2023/12/19 10:30:18;;;;;;;;;;;26.10;29.80;;;;;;5002972;28;20028;-56
2023/12/19 10:32:46;;;;;;;;;;;26.10;29.80;;;;;;5006116;28;20020;-57
2023/12/19 10:35:14;;;;;;;;;;;26.10;29.80;;;;;;5005014;28;19933;-54
2023/12/19 10:37:42;;;;;;;;;;;26.10;29.80;;;;;;5003171;28;19932;-57
2023/12/19 10:40:14;;;;;;;;;;;26.10;29.80;;;;;;5007399;28;19929;-55
2023/12/19 10:42:41;;;;;;;;;;;26.10;29.80;;;;;;5003422;28;19949;-55
2023/12/19 10:45:08;;;;;;;;;;;26.10;29.80;;;;;;5007140;28;20019;-57
2023/12/19 10:47:35;;;;;;;;;;;26.10;29.70;;;;;;5005905;28;19937;-56
2023/12/19 10:50:02;;;;;;;;;;;26.20;29.70;;;;;;5006775;28;19933;-58
2023/12/19 10:52:31;;;;;;;;;;;26.20;29.60;;;;;;5007116;28;19933;-57
2023/12/19 10:55:08;;;;;;;;;;;26.20;29.70;;;;;;5010902;28;19964;-57
2023/12/19 10:57:49;;;;;;;;;;;26.20;29.70;;;;;;5007810;28;20282;-57
2023/12/19 11:00:22;;;;;;;;;;;26.20;29.70;;;;;;4994725;28;20381;-56
2023/12/19 11:02:59;;;;;;;;;;;26.20;29.70;;;;;;5006051;28;19926;-55
2023/12/19 11:05:33;;;;;;;;;;;26.20;29.70;;;;;;5002370;28;19995;-56
2023/12/19 11:08:06;;;;;;;;;;;26.20;29.70;;;;;;5010071;28;20378;-56
2023/12/19 11:10:36;;;;;;;;;;;26.20;29.70;;;;;;5013100;28;19979;-54
2023/12/19 11:13:04;;;;;;;;;;;26.20;29.70;;;;;;5009612;28;19933;-54
2023/12/19 11:15:32;;;;;;;;;;;26.20;30.00;;;;;;5004967;28;19934;-56
2023/12/19 11:18:04;;;;;;;;;;;26.20;29.60;;;;;;5004089;28;19926;-56
2023/12/19 11:20:42;;;;;;;;;;;26.20;29.70;;;;;;5007096;28;19992;-57
2023/12/19 11:23:29;;;;;;;;;;;26.20;29.70;;;;;;5003127;28;20388;-55
2023/12/19 11:26:04;;;;;;;;;;;26.20;29.70;;;;;;4985216;28;19934;-56
2023/12/19 11:28:37;;;;;;;;;;;26.20;29.70;;;;;;5002504;28;20406;-57
2023/12/19 11:31:26;;;;;;;;;;;26.20;29.80;;;;;;5005822;28;20232;-55
2023/12/19 11:33:53;;;;;;;;;;;26.20;29.90;;;;;;5005879;28;19957;-56
2023/12/19 11:36:21;;;;;;;;;;;26.30;29.80;;;;;;5010087;28;20294;-55
2023/12/19 11:38:49;;;;;;;;;;;26.40;29.80;;;;;;5002838;28;19964;-55
2023/12/19 11:41:34;;;;;;;;;;;26.40;29.70;;;;;;5008561;28;19929;-56
2023/12/19 11:44:01;;;;;;;;;;;26.50;29.80;;;;;;5001708;28;20357;-53
2023/12/19 11:46:28;;;;;;;;;;;26.60;30.00;;;;;;5003500;28;20378;-58
2023/12/19 11:48:55;;;;;;;;;;;26.60;29.80;;;;;;5004226;28;20329;-56
2023/12/19 11:51:43;;;;;;;;;;;26.70;29.70;;;;;;5003753;28;20036;-54
2023/12/19 11:54:12;;;;;;;;;;;26.70;29.70;;;;;;5004334;28;20394;-53
2023/12/19 11:56:40;;;;;;;;;;;26.80;29.90;;;;;;5003849;28;20390;-55
2023/12/19 11:59:08;;;;;;;;;;;26.80;29.80;;;;;;4995749;28;20023;-56
2023/12/19 12:01:39;;;;;;;;;;;26.80;29.60;;;;;;5008047;28;19933;-54
2023/12/19 12:04:08;;;;;;;;;;;26.80;29.60;;;;;;5004889;28;19929;-54
2023/12/19 12:06:37;;;;;;;;;;;26.80;29.70;;;;;;5005728;28;20374;-57
2023/12/19 12:09:05;;;;;;;;;;;26.80;29.60;;;;;;5001013;28;19926;-54
2023/12/19 12:11:51;;;;;;;;;;;26.80;29.70;;;;;;5006595;28;20012;-54
2023/12/19 12:14:18;;;;;;;;;;;26.80;29.60;;;;;;5003848;28;20016;-52
2023/12/19 12:16:45;;;;;;;;;;;26.80;29.60;;;;;;5010909;28;20024;-54
2023/12/19 12:19:12;;;;;;;;;;;26.80;29.50;;;;;;5008266;28;19972;-51
2023/12/19 12:21:46;;;;;;;;;;;26.80;29.50;;;;;;5012808;28;19925;-54
2023/12/19 12:24:20;;;;;;;;;;;26.80;29.50;;;;;;5008467;28;20401;-52
2023/12/19 12:27:09;;;;;;;;;;;26.90;29.60;;;;;;5008431;28;20409;-54
2023/12/19 12:29:38;;;;;;;;;;;26.90;29.60;;;;;;5006028;28;19937;-51
2023/12/19 12:32:05;;;;;;;;;;;26.90;29.60;;;;;;5007447;28;19933;-52
2023/12/19 12:34:32;;;;;;;;;;;26.90;29.50;;;;;;5005851;28;20080;-50
2023/12/19 12:37:00;;;;;;;;;;;26.90;30.00;;;;;;4996033;28;20394;-53
2023/12/19 12:39:27;;;;;;;;;;;26.90;29.70;;;;;;5010604;28;20033;-55
2023/12/19 12:42:04;;;;;;;;;;;26.90;29.80;;;;;;5007587;28;19929;-54
2023/12/19 12:44:31;;;;;;;;;;;26.90;29.80;;;;;;5004537;28;19926;-56
2023/12/19 12:46:58;;;;;;;;;;;27.00;29.70;;;;;;5009652;28;19984;-52
2023/12/19 12:49:25;;;;;;;;;;;27.00;29.70;;;;;;5008247;28;19926;-56
2023/12/19 12:51:56;;;;;;;;;;;27.00;29.70;;;;;;5006406;28;19926;-55
2023/12/19 12:54:23;;;;;;;;;;;27.00;29.70;;;;;;5012937;28;19980;-56
2023/12/19 12:56:50;;;;;;;;;;;27.10;29.50;;;;;;5013137;28;20326;-60
2023/12/19 12:59:20;;;;;;;;;;;27.10;29.60;;;;;;5006971;28;19968;-57
2023/12/19 13:01:47;;;;;;;;;;;27.10;29.50;;;;;;5006192;28;19933;-57
2023/12/19 13:04:14;;;;;;;;;;;27.10;29.50;;;;;;5011018;28;20077;-55
2023/12/19 13:06:42;;;;;;;;;;;27.20;29.60;;;;;;5011644;28;20379;-55
2023/12/19 13:09:13;;;;;;;;;;;27.10;29.60;;;;;;5012293;28;19926;-57
2023/12/19 13:11:42;;;;;;;;;;;27.10;29.40;;;;;;5012527;28;19926;-55
2023/12/19 13:14:10;;;;;;;;;;;27.00;29.40;;;;;;5008631;28;19931;-54
2023/12/19 13:16:37;;;;;;;;;;;26.90;29.40;;;;;;5009902;28;19926;-62
2023/12/19 13:19:04;;;;;;;;;;;26.90;29.60;;;;;;5009133;28;19925;-55
2023/12/19 13:21:31;;;;;;;;;;;26.80;29.80;;;;;;5010561;28;19933;-56
2023/12/19 13:23:59;;;;;;;;;;;26.80;30.00;;;;;;5007219;28;19943;-54
2023/12/19 13:26:26;;;;;;;;;;;26.70;30.00;;;;;;5003937;28;19934;-54
2023/12/19 13:28:53;;;;;;;;;;;26.60;30.10;;;;;;5005094;28;19972;-55
2023/12/19 13:31:21;;;;;;;;;;;26.60;30.40;;;;;;5010529;28;19929;-59
2023/12/19 13:33:49;;;;;;;;;;;26.60;30.40;;;;;;5010134;28;20413;-56
2023/12/19 13:36:16;;;;;;;;;;;26.60;30.40;;;;;;5010566;28;19933;-60
2023/12/19 13:38:43;;;;;;;;;;;26.60;30.50;;;;;;5011206;28;20123;-57
2023/12/19 13:41:11;;;;;;;;;;;26.50;30.40;;;;;;5007283;28;20441;-58
2023/12/19 13:43:38;;;;;;;;;;;26.50;30.50;;;;;;5008407;28;19937;-55
2023/12/19 13:46:06;;;;;;;;;;;26.50;30.60;;;;;;5006343;28;19939;-54
2023/12/19 13:48:34;;;;;;;;;;;26.50;30.70;;;;;;5009541;28;19960;-53
2023/12/19 13:51:01;;;;;;;;;;;26.50;30.90;;;;;;5002576;28;20013;-60
2023/12/19 13:53:28;;;;;;;;;;;26.40;31.20;;;;;;5008871;28;19964;-60
2023/12/19 13:55:55;;;;;;;;;;;26.40;31.40;;;;;;5007345;28;20401;-59
2023/12/19 13:58:22;;;;;;;;;;;26.40;31.50;;;;;;5005179;28;20020;-60
2023/12/19 14:00:54;;;;;;;;;;;26.40;31.40;;;;;;5006709;28;19936;-57
2023/12/19 14:03:22;;;;;;;;;;;26.40;31.40;;;;;;5006442;28;19932;-58
2023/12/19 14:05:49;;;;;;;;;;;26.30;31.70;;;;;;5007230;28;20426;-58
2023/12/19 14:08:18;;;;;;;;;;;26.30;31.90;;;;;;4989224;28;19925;-57
2023/12/19 14:10:45;;;;;;;;;;;26.30;32.30;;;;;;5009045;28;19929;-57
2023/12/19 14:13:15;;;;;;;;;;;26.30;32.60;;;;;;4996706;28;19930;-55
2023/12/19 14:15:43;;;;;;;;;;;26.30;32.50;;;;;;5006487;28;19969;-55
2023/12/19 14:18:10;;;;;;;;;;;26.30;32.20;;;;;;5007997;28;19932;-56
2023/12/19 14:20:37;;;;;;;;;;;26.30;32.00;;;;;;5008785;28;19926;-54
2023/12/19 14:23:04;;;;;;;;;;;26.30;31.70;;;;;;5007654;28;19938;-56